createdAt,value
2019-03-29T00:01:54.007Z,53.73
2019-03-29T00:04:23.912Z,43.33
2019-03-29T00:06:53.812Z,46.77
2019-03-29T00:09:23.742Z,44.80
2019-03-29T00:11:53.602Z,44.80
2019-03-29T00:14:23.745Z,46.68
2019-03-29T00:16:53.584Z,44.55
2019-03-29T00:19:23.512Z,45.48
2019-03-29T00:21:53.671Z,48.85
2019-03-29T00:24:23.610Z,45.90
2019-03-29T00:26:53.481Z,44.85
2019-03-29T00:29:23.407Z,43.55
2019-03-29T00:31:53.315Z,44.35
2019-03-29T00:34:23.224Z,47.43
2019-03-29T00:36:53.078Z,42.62
2019-03-29T00:39:23.807Z,44.27
2019-03-29T00:41:56.197Z,49.33
2019-03-29T00:44:30.292Z,43.68
2019-03-29T00:47:00.249Z,46.83
2019-03-29T00:49:34.968Z,46.35
2019-03-29T00:52:07.611Z,48.83
2019-03-29T00:54:49.778Z,51.55
2019-03-29T00:57:25.473Z,44.18
2019-03-29T01:00:09.005Z,45.50
2019-03-29T01:02:41.915Z,49.40
2019-03-29T01:05:21.798Z,58.02
2019-03-29T01:08:07.725Z,48.60
2019-03-29T01:10:28.890Z,47.03
2019-03-29T01:12:59.015Z,50.38
2019-03-29T01:15:29.171Z,47.13
2019-03-29T01:17:59.046Z,49.88
2019-03-29T01:20:29.073Z,46.18
2019-03-29T01:22:58.941Z,49.65
2019-03-29T01:25:29.436Z,49.50
2019-03-29T01:27:59.724Z,49.18
2019-03-29T01:30:29.970Z,52.60
2019-03-29T01:33:01.398Z,58.73
2019-03-29T01:35:30.740Z,57.65
2019-03-29T01:38:00.603Z,56.77
2019-03-29T01:40:30.488Z,50.67
2019-03-29T01:43:00.380Z,51.35
2019-03-29T01:45:31.230Z,49.90
2019-03-29T01:48:00.887Z,51.02
2019-03-29T01:50:30.755Z,51.42
2019-03-29T01:53:00.637Z,51.92
2019-03-29T01:55:30.538Z,54.55
2019-03-29T01:58:00.548Z,61.35
2019-03-29T02:00:32.035Z,57.20
2019-03-29T02:03:01.323Z,61.73
2019-03-29T02:05:31.219Z,69.77
2019-03-29T02:08:02.134Z,63.70
2019-03-29T02:10:31.998Z,56.18
2019-03-29T02:13:01.922Z,55.03
2019-03-29T02:15:32.144Z,56.37
2019-03-29T02:18:02.066Z,56.85
2019-03-29T02:20:31.963Z,55.65
2019-03-29T02:23:01.807Z,52.17
2019-03-29T02:25:31.722Z,62.27
2019-03-29T02:28:01.638Z,56.25
2019-03-29T02:30:32.308Z,58.08
2019-03-29T02:33:02.609Z,61.73
2019-03-29T02:35:35.019Z,57.00
2019-03-29T02:38:15.030Z,59.48
2019-03-29T02:40:45.756Z,62.05
2019-03-29T02:43:16.371Z,67.15
2019-03-29T02:45:46.225Z,65.90
2019-03-29T02:48:17.034Z,67.08
2019-03-29T02:50:47.013Z,65.25
2019-03-29T02:53:16.932Z,64.60
2019-03-29T02:55:46.814Z,68.40
2019-03-29T02:58:16.779Z,68.62
2019-03-29T03:00:48.031Z,64.58
2019-03-29T03:03:18.269Z,64.70
2019-03-29T03:05:48.108Z,62.80
2019-03-29T03:08:18.019Z,58.58
2019-03-29T03:10:47.895Z,55.63
2019-03-29T03:13:17.767Z,58.60
2019-03-29T03:15:48.368Z,58.58
2019-03-29T03:18:18.223Z,55.85
2019-03-29T03:20:48.098Z,59.77
2019-03-29T03:23:18.031Z,65.17
2019-03-29T03:25:47.909Z,63.08
2019-03-29T03:28:17.788Z,61.53
2019-03-29T03:30:47.687Z,66.67
2019-03-29T03:33:18.504Z,67.22
2019-03-29T03:35:49.403Z,58.92
2019-03-29T03:38:19.334Z,57.60
2019-03-29T03:40:52.604Z,63.90
2019-03-29T03:43:22.465Z,56.77
2019-03-29T03:45:52.401Z,57.70
2019-03-29T03:48:22.269Z,57.20
2019-03-29T03:50:52.126Z,54.77
2019-03-29T03:53:22.767Z,62.90
2019-03-29T03:55:52.625Z,58.28
2019-03-29T03:58:22.637Z,56.05
2019-03-29T04:00:52.871Z,54.08
2019-03-29T04:03:22.737Z,61.90
2019-03-29T04:05:52.604Z,60.03
2019-03-29T04:08:22.537Z,56.85
2019-03-29T04:10:52.415Z,59.48
2019-03-29T04:13:22.272Z,48.15
2019-03-29T04:15:53.094Z,56.37
2019-03-29T04:18:24.020Z,50.67
2019-03-29T04:20:53.635Z,61.18
2019-03-29T04:23:23.540Z,63.05
2019-03-29T04:25:53.430Z,65.37
2019-03-29T04:28:23.301Z,64.10
2019-03-29T04:30:53.224Z,71.70
2019-03-29T04:33:23.177Z,73.90
2019-03-29T04:35:53.973Z,68.12
2019-03-29T04:38:23.647Z,44.67
2019-03-29T04:40:53.525Z,54.25
2019-03-29T04:43:23.391Z,57.48
2019-03-29T04:45:53.320Z,58.60
2019-03-29T04:48:23.191Z,55.50
2019-03-29T04:50:53.146Z,57.88
2019-03-29T04:53:23.066Z,56.75
2019-03-29T04:55:52.944Z,56.23
2019-03-29T04:58:23.534Z,56.55
2019-03-29T05:00:53.557Z,51.35
2019-03-29T05:03:23.452Z,52.73
2019-03-29T05:05:53.496Z,50.80
2019-03-29T05:08:23.876Z,55.03
2019-03-29T05:10:53.728Z,52.05
2019-03-29T05:13:23.608Z,46.90
2019-03-29T05:15:53.545Z,63.45
2019-03-29T05:18:23.410Z,61.28
2019-03-29T05:20:53.282Z,72.40
2019-03-29T05:23:23.196Z,59.50
2019-03-29T05:25:53.087Z,59.53
2019-03-29T05:28:23.660Z,60.83
2019-03-29T05:30:53.582Z,58.00
2019-03-29T05:33:23.440Z,59.23
2019-03-29T05:35:53.299Z,65.28
2019-03-29T05:38:23.214Z,68.30
2019-03-29T05:40:53.086Z,68.65
2019-03-29T05:43:22.997Z,84.45
2019-03-29T05:45:52.959Z,61.00
2019-03-29T05:48:22.854Z,64.03
2019-03-29T05:50:52.733Z,60.00
2019-03-29T05:53:22.646Z,60.03
2019-03-29T05:55:52.522Z,65.50
2019-03-29T05:58:23.016Z,61.55
2019-03-29T06:00:53.174Z,54.27
2019-03-29T06:03:23.073Z,56.68
2019-03-29T06:05:53.082Z,60.98
2019-03-29T06:08:22.972Z,60.73
2019-03-29T06:10:54.132Z,57.75
2019-03-29T06:13:32.327Z,54.90
2019-03-29T06:16:02.240Z,52.50
2019-03-29T06:18:32.195Z,55.85
2019-03-29T06:21:02.286Z,48.83
2019-03-29T06:23:32.206Z,52.20
2019-03-29T06:26:02.549Z,50.12
2019-03-29T06:28:33.875Z,48.80
2019-03-29T06:31:03.511Z,58.78
2019-03-29T06:33:34.029Z,57.10
2019-03-29T06:36:04.198Z,46.95
2019-03-29T06:38:34.293Z,59.55
2019-03-29T06:41:04.230Z,57.50
2019-03-29T06:43:35.051Z,51.13
2019-03-29T06:46:05.991Z,58.90
2019-03-29T06:48:35.891Z,55.98
2019-03-29T06:51:05.902Z,53.60
2019-03-29T06:53:35.809Z,52.20
2019-03-29T06:56:05.692Z,50.33
2019-03-29T06:58:35.598Z,50.58
2019-03-29T07:01:06.137Z,46.18
2019-03-29T07:03:36.007Z,44.67
2019-03-29T07:06:07.728Z,55.70
2019-03-29T07:08:37.614Z,54.90
2019-03-29T07:11:17.207Z,49.67
2019-03-29T07:16:08.563Z,43.20
2019-03-29T07:18:38.419Z,45.23
2019-03-29T07:21:20.829Z,38.92
2019-03-29T07:26:07.823Z,43.02
2019-03-29T07:28:38.415Z,48.02
2019-03-29T07:31:08.751Z,40.88
2019-03-29T07:33:38.703Z,44.73
2019-03-29T07:36:08.602Z,34.75
2019-03-29T07:38:38.625Z,40.92
2019-03-29T07:41:08.537Z,36.23
2019-03-29T07:43:38.424Z,36.63
2019-03-29T07:46:08.360Z,40.08
2019-03-29T07:48:40.397Z,44.90
2019-03-29T07:53:37.826Z,40.20
2019-03-29T07:56:07.713Z,44.03
2019-03-29T07:58:51.060Z,52.62
2019-03-29T08:01:20.985Z,31.07
2019-03-29T08:03:51.408Z,43.35
2019-03-29T08:06:21.560Z,33.67
2019-03-29T08:08:51.761Z,41.50
2019-03-29T08:11:26.237Z,29.23
2019-03-29T08:13:53.639Z,23.38
2019-03-29T08:16:23.592Z,25.60
2019-03-29T08:18:53.822Z,35.00
2019-03-29T08:21:23.832Z,23.73
2019-03-29T08:23:53.715Z,24.05
2019-03-29T08:26:23.688Z,28.50
2019-03-29T08:28:53.567Z,26.17
2019-03-29T08:31:23.570Z,25.77
2019-03-29T08:33:55.014Z,26.65
2019-03-29T08:36:24.370Z,26.27
2019-03-29T08:38:54.278Z,22.50
2019-03-29T08:41:24.167Z,23.70
2019-03-29T08:43:54.068Z,22.17
2019-03-29T08:46:23.974Z,23.87
2019-03-29T08:48:53.908Z,29.90
2019-03-29T08:51:23.782Z,25.30
2019-03-29T08:53:53.719Z,25.80
2019-03-29T08:56:23.586Z,31.90
2019-03-29T08:58:53.562Z,23.32
2019-03-29T09:01:23.442Z,19.00
2019-03-29T09:04:04.855Z,33.42
2019-03-29T09:06:25.038Z,29.35
2019-03-29T09:08:55.013Z,24.98
2019-03-29T09:11:24.908Z,20.08
2019-03-29T09:13:55.123Z,33.28
2019-03-29T09:16:24.992Z,27.65
2019-03-29T09:18:57.488Z,23.75
2019-03-29T09:21:27.352Z,21.90
2019-03-29T09:23:57.311Z,21.82
2019-03-29T09:26:27.164Z,24.77
2019-03-29T09:28:57.092Z,17.82
2019-03-29T09:31:26.956Z,21.37
2019-03-29T09:33:58.605Z,19.82
2019-03-29T09:38:56.396Z,19.15
2019-03-29T09:41:26.298Z,16.05
2019-03-29T09:43:56.223Z,16.00
2019-03-29T09:46:26.111Z,20.37
2019-03-29T09:48:56.027Z,22.13
2019-03-29T09:51:25.927Z,26.30
2019-03-29T09:53:57.897Z,21.15
2019-03-29T09:58:56.953Z,21.95
2019-03-29T10:01:26.882Z,17.67
2019-03-29T10:03:57.298Z,22.07
2019-03-29T10:06:27.201Z,13.65
2019-03-29T10:08:57.132Z,15.53
2019-03-29T10:11:27.007Z,16.82
2019-03-29T10:13:56.943Z,18.75
2019-03-29T10:16:26.862Z,35.75
2019-03-29T10:18:57.361Z,16.62
2019-03-29T10:21:27.289Z,14.43
2019-03-29T10:23:57.268Z,18.15
2019-03-29T10:26:27.174Z,24.12
2019-03-29T10:28:57.130Z,14.05
2019-03-29T10:31:32.539Z,11.33
2019-03-29T10:33:57.969Z,15.43
2019-03-29T10:36:27.880Z,20.52
2019-03-29T10:38:58.249Z,20.55
2019-03-29T10:41:28.145Z,16.27
2019-03-29T10:43:58.162Z,20.40
2019-03-29T10:46:28.556Z,20.60
2019-03-29T10:48:58.503Z,14.85
2019-03-29T10:51:28.514Z,23.65
2019-03-29T10:53:58.453Z,12.07
2019-03-29T10:56:34.433Z,10.35
2019-03-29T11:01:27.841Z,9.65
2019-03-29T11:03:57.692Z,8.18
2019-03-29T11:06:27.759Z,8.45
2019-03-29T11:08:57.610Z,9.43
2019-03-29T11:11:27.510Z,12.60
2019-03-29T11:13:57.401Z,17.12
2019-03-29T11:16:27.326Z,16.73
2019-03-29T11:18:57.208Z,22.90
2019-03-29T11:21:27.169Z,9.75
2019-03-29T11:23:57.076Z,33.38
2019-03-29T11:26:27.720Z,12.78
2019-03-29T11:28:57.604Z,11.70
2019-03-29T11:31:27.507Z,10.30
2019-03-29T11:33:58.731Z,9.68
2019-03-29T11:36:29.655Z,27.07
2019-03-29T11:38:59.623Z,10.85
2019-03-29T11:41:29.574Z,20.92
2019-03-29T11:43:59.465Z,12.78
2019-03-29T11:46:29.372Z,12.85
2019-03-29T11:48:59.300Z,13.00
2019-03-29T11:51:29.314Z,13.25
2019-03-29T11:53:59.302Z,10.70
2019-03-29T11:56:29.191Z,13.53
2019-03-29T11:58:59.550Z,12.37
2019-03-29T12:01:29.485Z,10.03
2019-03-29T12:03:59.350Z,10.05
2019-03-29T12:06:29.262Z,11.85
2019-03-29T12:08:59.483Z,7.72
2019-03-29T12:11:29.431Z,11.90
2019-03-29T12:14:00.034Z,11.38
2019-03-29T12:16:29.926Z,9.33
2019-03-29T12:18:59.868Z,9.73
2019-03-29T12:21:29.699Z,9.85
2019-03-29T12:23:59.599Z,12.88
2019-03-29T12:26:29.579Z,10.60
2019-03-29T12:28:59.465Z,13.88
2019-03-29T12:31:29.380Z,17.87
2019-03-29T12:33:59.347Z,12.55
2019-03-29T12:36:29.226Z,9.98
2019-03-29T12:38:59.935Z,25.57
2019-03-29T12:41:30.924Z,46.23
2019-03-29T12:44:00.555Z,31.75
2019-03-29T12:46:32.398Z,26.52
2019-03-29T12:49:02.599Z,9.88
2019-03-29T12:51:32.461Z,11.12
2019-03-29T12:54:02.371Z,14.58
2019-03-29T12:56:33.301Z,11.03
2019-03-29T12:59:02.915Z,7.60
2019-03-29T13:01:39.352Z,14.93
2019-03-29T13:06:32.360Z,11.80
2019-03-29T13:09:02.419Z,12.18
2019-03-29T13:11:33.597Z,12.78
2019-03-29T13:14:10.266Z,9.45
2019-03-29T13:19:03.128Z,11.15
2019-03-29T13:21:33.030Z,12.55
2019-03-29T13:24:02.975Z,12.82
2019-03-29T13:26:33.568Z,13.62
2019-03-29T13:29:03.472Z,12.45
2019-03-29T13:31:35.210Z,13.58
2019-03-29T13:36:33.827Z,13.62
2019-03-29T13:39:06.275Z,9.95
2019-03-29T13:41:36.201Z,16.90
2019-03-29T13:44:06.439Z,21.30
2019-03-29T13:46:36.352Z,22.25
2019-03-29T13:49:06.250Z,15.45
2019-03-29T13:51:36.233Z,26.62
2019-03-29T13:54:06.136Z,19.25
2019-03-29T13:56:36.089Z,39.53
2019-03-29T13:59:06.010Z,22.75
2019-03-29T14:01:35.970Z,13.10
2019-03-29T14:04:05.887Z,12.58
2019-03-29T14:06:35.819Z,17.50
2019-03-29T14:09:06.505Z,11.22
2019-03-29T14:11:35.898Z,9.97
2019-03-29T14:14:05.806Z,16.40
2019-03-29T14:16:35.792Z,15.68
2019-03-29T14:19:05.660Z,11.28
2019-03-29T14:21:35.596Z,15.53
2019-03-29T14:24:07.486Z,13.85
2019-03-29T14:26:37.411Z,13.65
2019-03-29T14:29:07.316Z,15.75
2019-03-29T14:31:37.249Z,31.48
2019-03-29T14:34:07.095Z,10.30
2019-03-29T14:36:37.007Z,14.38
2019-03-29T14:39:07.257Z,24.07
2019-03-29T14:41:37.240Z,18.27
2019-03-29T14:44:07.138Z,28.70
2019-03-29T14:46:37.725Z,20.32
2019-03-29T14:49:07.582Z,14.90
2019-03-29T14:51:37.495Z,27.55
2019-03-29T14:54:07.791Z,18.07
2019-03-29T14:56:37.724Z,15.15
2019-03-29T14:59:07.594Z,14.20
2019-03-29T15:01:37.560Z,14.00
2019-03-29T15:04:07.406Z,18.32
2019-03-29T15:06:37.381Z,18.10
2019-03-29T15:09:07.693Z,14.30
2019-03-29T15:11:37.621Z,13.22
2019-03-29T15:14:13.292Z,14.23
2019-03-29T15:16:42.928Z,13.00
2019-03-29T15:19:12.826Z,13.60
2019-03-29T15:21:43.163Z,20.53
2019-03-29T15:24:13.049Z,16.70
2019-03-29T15:26:43.716Z,18.95
2019-03-29T15:29:13.597Z,14.43
2019-03-29T15:31:43.540Z,15.80
2019-03-29T15:34:13.434Z,19.62
2019-03-29T15:36:44.266Z,24.92
2019-03-29T15:39:14.150Z,16.07
2019-03-29T15:41:44.459Z,15.58
2019-03-29T15:44:14.383Z,24.20
2019-03-29T15:47:07.242Z,22.82
2019-03-29T15:49:37.144Z,33.20
2019-03-29T15:52:07.117Z,31.40
2019-03-29T15:54:37.028Z,25.35
2019-03-29T15:57:07.002Z,31.45
2019-03-29T15:59:42.748Z,23.90
2019-03-29T16:02:12.693Z,30.52
2019-03-29T16:04:42.992Z,25.10
2019-03-29T16:07:15.205Z,28.50
2019-03-29T16:09:47.015Z,37.67
2019-03-29T16:12:16.968Z,28.30
2019-03-29T16:14:46.869Z,30.08
2019-03-29T16:17:16.809Z,28.60
2019-03-29T16:19:46.705Z,39.73
2019-03-29T16:22:23.762Z,26.75
2019-03-29T16:24:54.654Z,37.53
2019-03-29T16:27:25.246Z,52.45
2019-03-29T16:29:55.117Z,40.33
2019-03-29T16:32:25.089Z,39.73
2019-03-29T16:34:55.013Z,66.57
2019-03-29T16:37:25.211Z,42.58
2019-03-29T16:39:56.170Z,26.62
2019-03-29T16:42:25.918Z,56.40
2019-03-29T16:44:55.826Z,37.55
2019-03-29T16:47:25.783Z,52.73
2019-03-29T16:49:55.699Z,33.88
2019-03-29T16:52:34.681Z,51.23
2019-03-29T16:55:13.205Z,57.00
2019-03-29T16:57:39.392Z,58.35
2019-03-29T17:02:38.641Z,48.85
2019-03-29T17:05:08.617Z,54.73
2019-03-29T17:07:38.940Z,65.40
2019-03-29T17:10:10.875Z,59.13
2019-03-29T17:12:40.797Z,39.53
2019-03-29T17:15:10.677Z,59.30
2019-03-29T17:17:41.400Z,55.45
2019-03-29T17:20:11.251Z,78.17
2019-03-29T17:22:43.260Z,67.65
2019-03-29T17:27:41.529Z,67.10
2019-03-29T17:30:13.191Z,57.33
2019-03-29T17:32:43.046Z,45.25
2019-03-29T17:35:12.933Z,50.15
2019-03-29T17:37:42.819Z,47.58
2019-03-29T17:40:12.676Z,47.65
2019-03-29T17:42:42.643Z,42.45
2019-03-29T17:45:12.503Z,51.20
2019-03-29T17:47:42.429Z,73.30
2019-03-29T17:50:12.288Z,62.70
2019-03-29T17:52:42.804Z,54.73
2019-03-29T17:55:12.684Z,47.45
2019-03-29T17:57:42.612Z,54.88
2019-03-29T18:00:14.034Z,65.90
2019-03-29T18:02:58.627Z,38.05
2019-03-29T18:05:28.476Z,62.78
2019-03-29T18:07:58.374Z,53.15
2019-03-29T18:10:29.948Z,57.30
2019-03-29T18:15:30.528Z,56.42
2019-03-29T18:18:00.449Z,68.62
2019-03-29T18:20:33.053Z,72.95
2019-03-29T18:23:02.976Z,60.08
2019-03-29T18:25:32.873Z,60.48
2019-03-29T18:28:02.787Z,59.30
2019-03-29T18:30:38.178Z,48.85
2019-03-29T18:33:13.604Z,71.28
2019-03-29T18:35:43.432Z,51.42
2019-03-29T18:38:13.405Z,62.60
2019-03-29T18:40:43.615Z,56.80
2019-03-29T18:43:13.516Z,57.33
2019-03-29T18:45:43.083Z,54.00
2019-03-29T18:48:12.979Z,41.45
2019-03-29T18:50:42.869Z,40.15
2019-03-29T18:53:12.752Z,41.60
2019-03-29T18:55:42.682Z,49.73
2019-03-29T18:58:12.552Z,90.05
2019-03-29T19:00:43.786Z,101.70
2019-03-29T19:03:14.339Z,41.08
2019-03-29T19:05:43.972Z,42.03
2019-03-29T19:08:13.878Z,39.78
2019-03-29T19:10:43.901Z,42.65
2019-03-29T19:13:15.727Z,36.65
2019-03-29T19:15:45.669Z,46.98
2019-03-29T19:18:15.633Z,38.60
2019-03-29T19:20:47.447Z,68.47
2019-03-29T19:23:17.500Z,50.88
2019-03-29T19:25:47.628Z,63.25
2019-03-29T21:05:21.618Z,48.17
2019-03-29T21:08:59.828Z,59.20
2019-03-29T21:11:27.156Z,46.05
2019-03-29T21:13:54.655Z,50.45
2019-03-29T21:16:21.867Z,60.60
2019-03-29T21:18:49.432Z,54.50
2019-03-29T21:21:16.699Z,47.17
2019-03-29T21:23:47.104Z,55.17
2019-03-29T21:26:13.099Z,59.08
2019-03-29T21:28:40.459Z,68.57
2019-03-29T21:31:07.725Z,62.08
2019-03-29T21:33:35.438Z,62.27
2019-03-29T21:36:03.078Z,51.30
2019-03-29T21:38:30.747Z,60.55
2019-03-29T21:40:58.014Z,48.70
2019-03-29T21:43:25.416Z,52.33
2019-03-29T21:45:53.693Z,57.53
2019-03-29T21:48:28.508Z,56.58
2019-03-29T21:50:51.269Z,53.87
2019-03-29T21:53:18.472Z,57.40
2019-03-29T21:55:45.887Z,53.23
2019-03-29T21:58:13.224Z,47.85
2019-03-29T22:00:40.569Z,38.13
2019-03-29T22:03:07.892Z,38.80
2019-03-29T22:05:35.584Z,45.50
2019-03-29T22:08:02.822Z,30.80
2019-03-29T22:10:31.309Z,40.03
2019-03-29T22:12:58.614Z,32.75
2019-03-29T22:15:25.827Z,38.20
2019-03-29T22:17:56.033Z,36.58
2019-03-29T22:20:23.559Z,28.75
2019-03-29T22:22:51.765Z,36.08
2019-03-29T22:25:19.240Z,32.48
2019-03-29T22:27:47.465Z,28.70
2019-03-29T22:30:15.287Z,29.63
2019-03-29T22:32:42.896Z,24.70
2019-03-29T22:35:10.589Z,28.45
2019-03-29T22:37:38.234Z,24.37
2019-03-29T22:40:06.222Z,24.35
2019-03-29T22:42:33.639Z,26.20
2019-03-29T22:45:01.869Z,26.65
2019-03-29T22:47:29.126Z,36.38
2019-03-29T22:49:56.333Z,33.38
2019-03-29T22:52:23.558Z,34.03
2019-03-29T22:54:50.857Z,31.45
2019-03-29T22:57:18.055Z,32.65
2019-03-29T22:59:45.286Z,28.92
2019-03-29T23:02:12.547Z,30.75
2019-03-29T23:04:39.766Z,31.20
2019-03-29T23:07:07.201Z,27.75
2019-03-29T23:09:34.470Z,27.40
2019-03-29T23:12:01.683Z,28.75
2019-03-29T23:14:29.105Z,28.30
2019-03-29T23:16:56.783Z,29.72
2019-03-29T23:19:24.964Z,25.12
2019-03-29T23:21:52.181Z,28.40
2019-03-29T23:24:21.282Z,25.88
2019-03-29T23:26:48.479Z,26.55
2019-03-29T23:29:15.782Z,25.92
2019-03-29T23:31:43.400Z,25.55
2019-03-29T23:34:10.655Z,27.93
2019-03-29T23:36:38.005Z,25.70
2019-03-29T23:39:05.318Z,28.87
2019-03-29T23:41:33.650Z,28.07
2019-03-29T23:44:02.730Z,26.87
2019-03-29T23:46:30.244Z,23.85
2019-03-29T23:48:57.447Z,27.75
2019-03-29T23:51:24.654Z,25.23
2019-03-29T23:53:51.940Z,27.35
2019-03-29T23:56:20.250Z,28.00
2019-03-29T23:58:47.462Z,24.63
